MSC Vega — D5BE4 — position and weather

sailwx.info

Track history (hours):
 
Tides and Currents Weather Stations Pressure Air Temp Water Temp Dewpoint Dewpoint Depression Visibility Wind Speed Wind Dir Waves Ship Positions

MSC Vega

Last reported at 2017-Sep-13 10:41 UTC. Time now 2017-Sep-25 04:25 UTC.
Position N 22°09' E 120°12'.
Warning: this ship's position is 11 days out of date.

Length 366 m; draft 13.7 m.

Type: Ship (hazmat cat A). MMSI: 636015506.

Date/timePositionNaut miles runAvg speedWind from/ knotsBaromVisibWave heightAir tempDewpointWater temp
2017-Sep-13 10:41N 22°09' E 120°12'820.6
2017-Sep-13 10:18N 22°15' E 120°07'1220.7
2017-Sep-13 09:42N 22°26' E 119°59'520.7
2017-Sep-13 09:27N 22°31' E 119°57'920.6
2017-Sep-13 09:01N 22°39' E 119°55'1020.7
2017-Sep-13 08:30N 22°49' E 119°53'11215.3
2017-Sep-13 01:12N 24°09' E 118°27'615.9
2017-Sep-13 00:50N 24°11' E 118°21'516.5
2017-Sep-13 00:30N 24°14' E 118°16'714.7
2017-Sep-13 00:01N 24°20' E 118°11'612.9
2017-Sep-12 23:30N 24°24' E 118°06'4 8.6
2017-Sep-12 23:00N 24°26' E 118°02'0 0.3
2017-Sep-12 22:29N 24°26' E 118°02'0 0.0
2017-Sep-12 21:59N 24°26' E 118°02'0 0.0
2017-Sep-12 21:29N 24°26' E 118°02'0 0.0
2017-Sep-12 20:59N 24°26' E 118°02'0 0.0
2017-Sep-12 20:29N 24°26' E 118°02'0 0.0
2017-Sep-12 19:59N 24°26' E 118°02'0 0.0
2017-Sep-12 19:29N 24°26' E 118°02'0 0.0
2017-Sep-12 18:59N 24°26' E 118°02'0 0.0
2017-Sep-12 18:29N 24°26' E 118°02'0 0.0
2017-Sep-12 17:59N 24°26' E 118°02'0 0.0
2017-Sep-12 17:29N 24°26' E 118°02'0 0.0
2017-Sep-12 16:59N 24°26' E 118°02'0 0.0
2017-Sep-12 16:29N 24°26' E 118°02'0 0.0
2017-Sep-12 15:59N 24°26' E 118°02'0 0.0
2017-Sep-12 15:29N 24°26' E 118°02'0 0.0
2017-Sep-12 14:59N 24°26' E 118°02'0 0.0
2017-Sep-12 14:29N 24°26' E 118°02'0 0.0
2017-Sep-12 13:59N 24°26' E 118°02'0 0.0
2017-Sep-12 13:29N 24°26' E 118°02'0 0.0
2017-Sep-12 12:59N 24°26' E 118°02'0 0.0
2017-Sep-12 12:29N 24°26' E 118°02'0 0.1
2017-Sep-12 11:59N 24°26' E 118°02'0 0.1
2017-Sep-12 11:29N 24°26' E 118°02'0 0.0
2017-Sep-12 10:59N 24°26' E 118°02'0 0.0
2017-Sep-12 10:29N 24°27' E 118°02'0 0.0
2017-Sep-12 09:59N 24°26' E 118°02'0 0.0
2017-Sep-12 09:29N 24°26' E 118°02'0 0.0
2017-Sep-12 08:59N 24°26' E 118°02'0 0.0
2017-Sep-12 08:29N 24°26' E 118°02'0 0.0
2017-Sep-12 07:59N 24°26' E 118°02'0 0.0
2017-Sep-12 07:30N 24°26' E 118°02'0 0.0
2017-Sep-12 06:59N 24°26' E 118°02'0 0.0
2017-Sep-12 06:29N 24°26' E 118°02'0 0.0
2017-Sep-12 05:59N 24°26' E 118°02'0 0.0
2017-Sep-12 05:29N 24°26' E 118°02'0 0.0
2017-Sep-12 04:59N 24°26' E 118°02'0 0.0
2017-Sep-12 04:29N 24°26' E 118°02'0 0.0
2017-Sep-12 04:01N 24°26' E 118°02'1 2.7
2017-Sep-12 03:31N 24°26' E 118°03'4 7.8
2017-Sep-12 03:00N 24°24' E 118°07'3 7.0
2017-Sep-12 02:31N 24°21' E 118°09'5 9.5
2017-Sep-12 02:01N 24°18' E 118°13'713.3
2017-Sep-12 01:30N 24°13' E 118°18'816.9
2017-Sep-12 01:00N 24°04' E 118°19'918.3
2017-Sep-12 00:30N 23°56' E 118°15'1816.7
2017-Sep-11 23:26N 23°38' E 118°10'2516.2
2017-Sep-11 21:53N 23°25' E 117°47'1316.4
2017-Sep-11 21:05N 23°16' E 117°37'317.6
2017-Sep-11 20:55N 23°14' E 117°35'  
2017-Sep-08 20:09N 22°20' E 114°07'0 2.4
2017-Sep-08 19:58N 22°20' E 114°07'18 1.4
2017-Sep-08 06:45N 22°20' E 113°48'414.1
2017-Sep-08 06:26N 22°24' E 113°46'714.0
2017-Sep-08 05:57N 22°31' E 113°45'611.8
2017-Sep-08 05:25N 22°37' E 113°42'2 4.7
2017-Sep-08 04:54N 22°39' E 113°41'0 0.1
2017-Sep-08 03:47N 22°39' E 113°41'0 0.0
2017-Sep-08 03:20N 22°39' E 113°41'0 0.0
2017-Sep-08 00:05N 22°39' E 113°41'0 0.0
2017-Sep-07 23:53N 22°39' E 113°41'0 0.0
2017-Sep-07 21:44N 22°39' E 113°41'0 0.0
2017-Sep-07 21:26N 22°39' E 113°41'0 0.0
2017-Sep-07 20:20N 22°39' E 113°41'0 0.0
2017-Sep-07 19:56N 22°39' E 113°41'0 0.0
2017-Sep-07 19:29N 22°39' E 113°41'0 0.0
2017-Sep-07 18:50N 22°39' E 113°41'0 0.0
2017-Sep-07 18:20N 22°39' E 113°41'0 0.0
2017-Sep-07 16:59N 22°39' E 113°41'0 0.0
2017-Sep-07 15:23N 22°39' E 113°41'0 0.0
2017-Sep-07 14:59N 22°39' E 113°41'0 0.0
2017-Sep-07 14:23N 22°39' E 113°41'0 0.0
2017-Sep-07 12:17N 22°39' E 113°41'0 0.0
2017-Sep-07 11:59N 22°39' E 113°41'0 0.0
2017-Sep-07 10:32N 22°39' E 113°41'0 0.0
2017-Sep-07 10:14N 22°39' E 113°41'0 0.0
2017-Sep-07 09:53N 22°39' E 113°41'0 0.0
2017-Sep-07 09:23N 22°39' E 113°41'0 0.0
2017-Sep-07 07:35N 22°39' E 113°41'0 0.0
2017-Sep-07 07:23N 22°39' E 113°41'0 0.0
2017-Sep-07 06:44N 22°39' E 113°41'0 0.0
2017-Sep-07 06:29N 22°39' E 113°41'0 0.7
2017-Sep-07 06:00N 22°38' E 113°41'4 8.0
2017-Sep-07 05:30N 22°35' E 113°43'914.8
2017-Sep-07 04:55N 22°26' E 113°45'614.9
2017-Sep-07 04:30N 22°21' E 113°48'  
2017-Sep-03 23:20N 01°14' E 103°58'617.5
2017-Sep-03 23:00N 01°12' E 103°52'5 9.0
2017-Sep-03 22:29N 01°13' E 103°48'4 8.2
2017-Sep-03 22:00N 01°16' E 103°46'0 0.3
2017-Sep-03 21:11N 01°16' E 103°46'0 0.0
2017-Sep-03 20:56N 01°16' E 103°46'0 0.0
2017-Sep-03 20:27N 01°16' E 103°46'0 0.0
2017-Sep-03 19:53N 01°16' E 103°46'0 0.0
2017-Sep-03 19:23N 01°16' E 103°46'0 0.0
2017-Sep-03 18:59N 01°16' E 103°46'0 0.0
2017-Sep-03 18:29N 01°16' E 103°46'0 0.0
2017-Sep-03 16:44N 01°16' E 103°46'0 0.0
2017-Sep-03 13:38N 01°16' E 103°46'0 0.0
2017-Sep-03 13:26N 01°16' E 103°46'0 0.0
2017-Sep-03 12:56N 01°16' E 103°46'0 0.0
2017-Sep-03 12:08N 01°16' E 103°46'0 0.0
2017-Sep-03 11:48N 01°16' E 103°46'0 0.0
2017-Sep-03 11:30N 01°16' E 103°46'  
Track history (hours):
 
Tides and Currents Weather Stations Pressure Air Temp Water Temp Dewpoint Dewpoint Depression Visibility Wind Speed Wind Dir Waves Ship Positions

MSC Vega

Last reported at 2017-Sep-13 10:41 UTC. Time now 2017-Sep-25 04:25 UTC.
Position N 22°09' E 120°12'.
Warning: this ship's position is 11 days out of date.

Length 366 m; draft 13.7 m.

Type: Ship (hazmat cat A). MMSI: 636015506.

Date/timePositionNaut miles runAvg speedWind from/ knotsBaromVisibWave heightAir tempDewpointWater temp
2017-Sep-13 10:41N 22°09' E 120°12'820.6
2017-Sep-13 10:18N 22°15' E 120°07'1220.7
2017-Sep-13 09:42N 22°26' E 119°59'520.7
2017-Sep-13 09:27N 22°31' E 119°57'920.6
2017-Sep-13 09:01N 22°39' E 119°55'1020.7
2017-Sep-13 08:30N 22°49' E 119°53'11215.3
2017-Sep-13 01:12N 24°09' E 118°27'615.9
2017-Sep-13 00:50N 24°11' E 118°21'516.5
2017-Sep-13 00:30N 24°14' E 118°16'714.7
2017-Sep-13 00:01N 24°20' E 118°11'612.9
2017-Sep-12 23:30N 24°24' E 118°06'4 8.6
2017-Sep-12 23:00N 24°26' E 118°02'0 0.3
2017-Sep-12 22:29N 24°26' E 118°02'0 0.0
2017-Sep-12 21:59N 24°26' E 118°02'0 0.0
2017-Sep-12 21:29N 24°26' E 118°02'0 0.0
2017-Sep-12 20:59N 24°26' E 118°02'0 0.0
2017-Sep-12 20:29N 24°26' E 118°02'0 0.0
2017-Sep-12 19:59N 24°26' E 118°02'0 0.0
2017-Sep-12 19:29N 24°26' E 118°02'0 0.0
2017-Sep-12 18:59N 24°26' E 118°02'0 0.0
2017-Sep-12 18:29N 24°26' E 118°02'0 0.0
2017-Sep-12 17:59N 24°26' E 118°02'0 0.0
2017-Sep-12 17:29N 24°26' E 118°02'0 0.0
2017-Sep-12 16:59N 24°26' E 118°02'0 0.0
2017-Sep-12 16:29N 24°26' E 118°02'0 0.0
2017-Sep-12 15:59N 24°26' E 118°02'0 0.0
2017-Sep-12 15:29N 24°26' E 118°02'0 0.0
2017-Sep-12 14:59N 24°26' E 118°02'0 0.0
2017-Sep-12 14:29N 24°26' E 118°02'0 0.0
2017-Sep-12 13:59N 24°26' E 118°02'0 0.0
2017-Sep-12 13:29N 24°26' E 118°02'0 0.0
2017-Sep-12 12:59N 24°26' E 118°02'0 0.0
2017-Sep-12 12:29N 24°26' E 118°02'0 0.1
2017-Sep-12 11:59N 24°26' E 118°02'0 0.1
2017-Sep-12 11:29N 24°26' E 118°02'0 0.0
2017-Sep-12 10:59N 24°26' E 118°02'0 0.0
2017-Sep-12 10:29N 24°27' E 118°02'0 0.0
2017-Sep-12 09:59N 24°26' E 118°02'0 0.0
2017-Sep-12 09:29N 24°26' E 118°02'0 0.0
2017-Sep-12 08:59N 24°26' E 118°02'0 0.0
2017-Sep-12 08:29N 24°26' E 118°02'0 0.0
2017-Sep-12 07:59N 24°26' E 118°02'0 0.0
2017-Sep-12 07:30N 24°26' E 118°02'0 0.0
2017-Sep-12 06:59N 24°26' E 118°02'0 0.0
2017-Sep-12 06:29N 24°26' E 118°02'0 0.0
2017-Sep-12 05:59N 24°26' E 118°02'0 0.0
2017-Sep-12 05:29N 24°26' E 118°02'0 0.0
2017-Sep-12 04:59N 24°26' E 118°02'0 0.0
2017-Sep-12 04:29N 24°26' E 118°02'0 0.0
2017-Sep-12 04:01N 24°26' E 118°02'1 2.7
2017-Sep-12 03:31N 24°26' E 118°03'4 7.8
2017-Sep-12 03:00N 24°24' E 118°07'3 7.0
2017-Sep-12 02:31N 24°21' E 118°09'5 9.5
2017-Sep-12 02:01N 24°18' E 118°13'713.3
2017-Sep-12 01:30N 24°13' E 118°18'816.9
2017-Sep-12 01:00N 24°04' E 118°19'918.3
2017-Sep-12 00:30N 23°56' E 118°15'1816.7
2017-Sep-11 23:26N 23°38' E 118°10'2516.2
2017-Sep-11 21:53N 23°25' E 117°47'1316.4
2017-Sep-11 21:05N 23°16' E 117°37'317.6
2017-Sep-11 20:55N 23°14' E 117°35'  
2017-Sep-08 20:09N 22°20' E 114°07'0 2.4
2017-Sep-08 19:58N 22°20' E 114°07'18 1.4
2017-Sep-08 06:45N 22°20' E 113°48'414.1
2017-Sep-08 06:26N 22°24' E 113°46'714.0
2017-Sep-08 05:57N 22°31' E 113°45'611.8
2017-Sep-08 05:25N 22°37' E 113°42'2 4.7
2017-Sep-08 04:54N 22°39' E 113°41'0 0.1
2017-Sep-08 03:47N 22°39' E 113°41'0 0.0
2017-Sep-08 03:20N 22°39' E 113°41'0 0.0
2017-Sep-08 00:05N 22°39' E 113°41'0 0.0
2017-Sep-07 23:53N 22°39' E 113°41'0 0.0
2017-Sep-07 21:44N 22°39' E 113°41'0 0.0
2017-Sep-07 21:26N 22°39' E 113°41'0 0.0
2017-Sep-07 20:20N 22°39' E 113°41'0 0.0
2017-Sep-07 19:56N 22°39' E 113°41'0 0.0
2017-Sep-07 19:29N 22°39' E 113°41'0 0.0
2017-Sep-07 18:50N 22°39' E 113°41'0 0.0
2017-Sep-07 18:20N 22°39' E 113°41'0 0.0
2017-Sep-07 16:59N 22°39' E 113°41'0 0.0
2017-Sep-07 15:23N 22°39' E 113°41'0 0.0
2017-Sep-07 14:59N 22°39' E 113°41'0 0.0
2017-Sep-07 14:23N 22°39' E 113°41'0 0.0
2017-Sep-07 12:17N 22°39' E 113°41'0 0.0
2017-Sep-07 11:59N 22°39' E 113°41'0 0.0
2017-Sep-07 10:32N 22°39' E 113°41'0 0.0
2017-Sep-07 10:14N 22°39' E 113°41'0 0.0
2017-Sep-07 09:53N 22°39' E 113°41'0 0.0
2017-Sep-07 09:23N 22°39' E 113°41'0 0.0
2017-Sep-07 07:35N 22°39' E 113°41'0 0.0
2017-Sep-07 07:23N 22°39' E 113°41'0 0.0
2017-Sep-07 06:44N 22°39' E 113°41'0 0.0
2017-Sep-07 06:29N 22°39' E 113°41'0 0.7
2017-Sep-07 06:00N 22°38' E 113°41'4 8.0
2017-Sep-07 05:30N 22°35' E 113°43'914.8
2017-Sep-07 04:55N 22°26' E 113°45'614.9
2017-Sep-07 04:30N 22°21' E 113°48'  
2017-Sep-03 23:20N 01°14' E 103°58'617.5
2017-Sep-03 23:00N 01°12' E 103°52'5 9.0
2017-Sep-03 22:29N 01°13' E 103°48'4 8.2
2017-Sep-03 22:00N 01°16' E 103°46'0 0.3
2017-Sep-03 21:11N 01°16' E 103°46'0 0.0
2017-Sep-03 20:56N 01°16' E 103°46'0 0.0
2017-Sep-03 20:27N 01°16' E 103°46'0 0.0
2017-Sep-03 19:53N 01°16' E 103°46'0 0.0
2017-Sep-03 19:23N 01°16' E 103°46'0 0.0
2017-Sep-03 18:59N 01°16' E 103°46'0 0.0
2017-Sep-03 18:29N 01°16' E 103°46'0 0.0
2017-Sep-03 16:44N 01°16' E 103°46'0 0.0
2017-Sep-03 13:38N 01°16' E 103°46'0 0.0
2017-Sep-03 13:26N 01°16' E 103°46'0 0.0
2017-Sep-03 12:56N 01°16' E 103°46'0 0.0
2017-Sep-03 12:08N 01°16' E 103°46'0 0.0
2017-Sep-03 11:48N 01°16' E 103°46'0 0.0
2017-Sep-03 11:30N 01°16' E 103°46'  

Dump ship's entire track history